Hancock County-Bar Harbor Airport Bar Harbor US
ICAO: KBHB
IATA: BHB
Category: Medium
Scheduled Services: Yes

Elevation: 83 ft
TransAlt. 18000 ft.

Airport Communications:
BANGOR APP/DEP:124.5
AWOS 3:118.025
CLNC DEL:119.9
CTAF/UNICOM:123

KBHB Zoom In..

If you have problems with the map follow the link
https://www.worldairports.se/pages/airport.php?
ICAO=KBHB

Runways:

(A) RW 04 length 5200 ft width 100 ft
---- / hdg 44

(B) RW 17 length 3253 ft width 75 ft
---- / hdg 169

(C) RW 22 length 5200 ft width 100 ft
ILS 108.30 / hdg 224

(D) RW 35 length 3253 ft width 75 ft
---- / hdg 349

Location; KBHB
Day. 21 / Time. 18.56 Zulu
* Altimeter: 29.68
* Temperature: 06° c. 42.8°f.
* Wind from: 330° Speed 14 kn with Gusts up to 22 kn.
Dewpoint: -04° c.
Visibility: 10 Statute Miles.
Clouds: Clear (automated report).

KBHB 211856Z AUTO 33014G22KT 300V360 10SM CLR 06/M04 A2968 RMK AO2 SLP055 T00611039


Wind From 330°
Speed 14 kn.

 
 
jpsmedia.com for Web Design worldairports.se 2018   terms of use